Time;durP1;ratioP1;P1;durP2;ratioP2;P2;SDS_P1;SDS_P2;PMS_P1;PMS_P2;Temp;Humidity;BMP_temperature;BMP_pressure;BME280_temperature;BME280_humidity;BME280_pressure;Samples;Min_cycle;Max_cycle;Signal;HPM_P1;HPM_P2
2023/01/06 00:00:28;;;;;;;;;;;;;;;;;;2041381;29;19998;-93
2023/01/06 00:01:28;;;;;;;;;;;;;;;;;;2033261;29;19911;-94
2023/01/06 00:02:28;;;;;;;;;;;;;;;;;;2030955;29;19910;-93
2023/01/06 00:03:29;;;;;;;;;;;;;;;;;;2041415;29;19911;-92
2023/01/06 00:04:32;;;;;;;;;;;;;;;;;;2033298;29;19918;-93
2023/01/06 00:05:32;;;;;;;;;;;;;;;;;;2033952;29;20457;-93
2023/01/06 00:07:06;;;;;;;;;;;;;;;;;;2041596;29;19923;-93
2023/01/06 00:08:06;;;;;;;;;;;;;;;;;;2041200;29;19915;-92
2023/01/06 00:09:08;;;;;;;;;;;;;;;;;;2041131;29;19916;-92
2023/01/06 00:10:09;;;;;;;;;;;;;;;;;;2041392;29;19910;-93
2023/01/06 00:11:11;;;;;;;;;;;;;;;;;;2033681;29;19915;-94
2023/01/06 00:12:11;;;;;;;;;;;;;;;;;;2033897;29;20002;-93
2023/01/06 00:13:14;;;;;;;;;;;;;;;;;;2033460;29;19929;-93
2023/01/06 00:14:17;;;;;;;;;;;;;;;;;;2033841;29;19911;-92
2023/01/06 00:15:18;;;;;;;;;;;;;;;;;;2033764;29;20019;-92
2023/01/06 00:16:19;;;;;;;;;;;;;;;;;;2033759;29;20012;-93
2023/01/06 00:17:19;;;;;;;;;;;;;;;;;;2041558;29;20429;-93
2023/01/06 00:18:19;;;;;;;;;;;;;;;;;;2041440;29;19911;-93
2023/01/06 00:19:20;;;;;;;;;;;;;;;;;;2020476;29;19911;-93
2023/01/06 00:20:20;;;;;;;;;;;;;;;;;;2041287;29;20317;-93
2023/01/06 00:21:36;;;;;;;;;;;;;;;;;;2041328;29;19946;-95
2023/01/06 00:25:13;;;;;;;;;;;;;;;;;;;;;
2023/01/06 00:26:14;;;;;;;;;;;;;;;;;;2030644;29;19915;-93
2023/01/06 00:27:14;;;;;;;;;;;;;;;;;;2033381;29;19942;-95
2023/01/06 00:28:20;;;;;;;;;;;;;;;;;;2027190;29;20119;-94
2023/01/06 00:29:22;;;;;;;;;;;;;;;;;;2034317;29;20418;-94
2023/01/06 00:30:22;;;;;;;;;;;;;;;;;;2033778;29;20394;-94
2023/01/06 00:34:59;;;;;;;;;;;;;;;;;;2041012;29;19914;-93
2023/01/06 00:36:29;;;;;;;;;;;;;;;;;;2041071;29;19947;-93
2023/01/06 00:37:29;;;;;;;;;;;;;;;;;;2041238;29;19911;-93
2023/01/06 00:38:30;;;;;;;;;;;;;;;;;;2040890;29;19970;-94
2023/01/06 00:39:30;;;;;;;;;;;;;;;;;;2041630;29;19915;-94
2023/01/06 00:42:31;;;;;;;;;;;;;;;;;;2027327;29;19911;-93
2023/01/06 00:43:31;;;;;;;;;;;;;;;;;;2034634;29;19911;-94
2023/01/06 00:45:14;;;;;;;;;;;;;;;;;;;;;
2023/01/06 00:46:17;;;;;;;;;;;;;;;;;;2042281;29;19933;-94
2023/01/06 00:52:58;;;;;;;;;;;;;;;;;;2044360;29;19986;-93
2023/01/06 00:53:59;;;;;;;;;;;;;;;;;;2033733;29;19965;-95
2023/01/06 00:54:59;;;;;;;;;;;;;;;;;;2033878;29;19919;-95
2023/01/06 00:56:00;;;;;;;;;;;;;;;;;;2041650;29;19911;-94
2023/01/06 00:57:00;;;;;;;;;;;;;;;;;;2034217;29;19911;-93
2023/01/06 00:58:00;;;;;;;;;;;;;;;;;;2033900;29;19911;-93
2023/01/06 00:59:01;;;;;;;;;;;;;;;;;;2033760;29;19911;-95
2023/01/06 01:00:02;;;;;;;;;;;;;;;;;;2041775;29;19922;-93
2023/01/06 01:01:04;;;;;;;;;;;;;;;;;;2041740;29;19910;-95
2023/01/06 01:10:52;;;;;;;;;;;;;;;;;;;;;
2023/01/06 01:12:08;;;;;;;;;;;;;;;;;;2050071;28;19922;-94
2023/01/06 01:13:09;;;;;;;;;;;;;;;;;;2041996;29;19922;-94
2023/01/06 01:15:45;;;;;;;;;;;;;;;;;;2046806;29;19910;-96
2023/01/06 01:27:10;;;;;;;;;;;;;;;;;;2057525;28;19925;-91
2023/01/06 01:28:11;;;;;;;;;;;;;;;;;;2049121;29;20317;-94
2023/01/06 01:29:12;;;;;;;;;;;;;;;;;;2041074;29;19910;-93
2023/01/06 01:30:13;;;;;;;;;;;;;;;;;;2049276;28;20000;-95
2023/01/06 01:31:14;;;;;;;;;;;;;;;;;;2049086;29;20070;-92
2023/01/06 01:32:15;;;;;;;;;;;;;;;;;;2049352;28;19910;-95
2023/01/06 01:33:15;;;;;;;;;;;;;;;;;;2057243;28;19914;-93
2023/01/06 01:45:03;;;;;;;;;;;;;;;;;;;;;
2023/01/06 01:58:29;;;;;;;;;;;;;;;;;;;;;
2023/01/06 01:59:50;;;;;;;;;;;;;;;;;;1995064;29;20059;-95
2023/01/06 02:00:53;;;;;;;;;;;;;;;;;;2010016;29;19962;-94
2023/01/06 02:01:56;;;;;;;;;;;;;;;;;;2024193;29;19904;-92
2023/01/06 02:03:28;;;;;;;;;;;;;;;;;;1688213;29;10215948;-93
2023/01/06 02:39:05;;;;;;;;;;;;;;;;;;1965890;30;19922;-93
2023/01/06 02:49:10;;;;;;;;;;;;;;;;;;1982286;29;19918;-93
2023/01/06 03:16:36;;;;;;;;;;;;;;;;;;2063985;28;19922;-94
2023/01/06 03:17:36;;;;;;;;;;;;;;;;;;2064139;28;19922;-92
2023/01/06 03:18:40;;;;;;;;;;;;;;;;;;2065411;28;19910;-93
2023/01/06 05:05:59;;;;;;;;;;;;;;;;;;2051979;28;20345;-95
2023/01/06 05:06:59;;;;;;;;;;;;;;;;;;2049844;29;19966;-94
2023/01/06 05:08:12;;;;;;;;;;;;;;;;;;;;;
2023/01/06 05:17:47;;;;;;;;;;;;;;;;;;2004565;29;19912;-95
2023/01/06 05:18:48;;;;;;;;;;;;;;;;;;2002757;29;19916;-94
2023/01/06 05:19:48;;;;;;;;;;;;;;;;;;2010573;29;19919;-95
2023/01/06 05:20:52;;;;;;;;;;;;;;;;;;2009792;29;20040;-93
2023/01/06 05:50:48;;;;;;;;;;;;;;;;;;2075566;28;19964;-93
2023/01/06 05:53:35;;;;;;;;;;;;;;;;;;2048134;28;19914;-92
2023/01/06 06:21:35;;;;;;;;;;;;;;;;;;2053882;28;20368;-95
2023/01/06 06:22:54;;;;;;;;;;;;;;;;;;2060843;28;19914;-94
2023/01/06 06:24:23;;;;;;;;;;;;;;;;;;2058803;28;19922;-93
2023/01/06 06:25:29;;;;;;;;;;;;;;;;;;2062029;28;19938;-93
2023/01/06 06:26:30;;;;;;;;;;;;;;;;;;2050846;28;19945;-94
2023/01/06 06:27:30;;;;;;;;;;;;;;;;;;2048908;29;20385;-94
2023/01/06 06:28:36;;;;;;;;;;;;;;;;;;2048950;29;19991;-95
2023/01/06 06:41:15;;;;;;;;;;;;;;;;;;2035604;29;19911;-94
2023/01/06 06:42:16;;;;;;;;;;;;;;;;;;2027937;29;20390;-94
2023/01/06 08:10:13;;;;;;;;;;;;;;;;;;2072850;28;20333;-94
2023/01/06 08:53:46;;;;;;;4.10;1.90;;;;;;;;;;2105063;27;20381;-93
2023/01/06 08:54:47;;;;;;;5.07;1.90;;;;;;;;;;2104575;28;20040;-93
2023/01/06 08:55:47;;;;;;;4.15;1.80;;;;;;;;;;2096397;28;20124;-95
2023/01/06 08:56:48;;;;;;;5.80;2.20;;;;;;;;;;2104476;28;20090;-95
2023/01/06 08:57:48;;;;;;;3.65;1.60;;;;;;;;;;2096184;28;20051;-92
2023/01/06 08:59:02;;;;;;;2.78;1.85;;;;;;;;;;2096290;28;20029;-94
2023/01/06 09:00:05;;;;;;;2.65;1.35;;;;;;;;;;2098259;28;20586;-95
2023/01/06 09:01:05;;;;;;;3.60;2.00;;;;;;;;;;2104577;28;20024;-94
2023/01/06 09:02:05;;;;;;;2.85;1.67;;;;;;;;;;2095932;28;20064;-94
2023/01/06 09:03:06;;;;;;;3.47;2.15;;;;;;;;;;2104361;28;20021;-96
2023/01/06 09:04:09;;;;;;;3.42;1.80;;;;;;;;;;1752888;28;10001599;-94
2023/01/06 09:05:10;;;;;;;3.25;1.58;;;;;;;;;;2104888;28;20107;-95
2023/01/06 09:06:11;;;;;;;5.43;1.92;;;;;;;;;;2096862;28;20044;-94
2023/01/06 09:07:12;;;;;;;5.00;1.95;;;;;;;;;;2089282;28;20051;-95
2023/01/06 09:08:12;;;;;;;1.75;1.65;;;;;;;;;;2038045;28;20031;-93
2023/01/06 09:09:12;;;;;;;;;;;;;;;;;;2064495;28;20022;-94
2023/01/06 09:10:13;;;;;;;3.53;1.80;;;;;;;;;;2079157;28;19909;-93
2023/01/06 09:11:16;;;;;;;5.72;2.15;;;;;;;;;;2080466;28;20021;-94
2023/01/06 09:12:16;;;;;;;3.22;1.73;;;;;;;;;;2079503;28;20507;-94
2023/01/06 09:13:17;;;;;;;3.85;1.55;;;;;;;;;;2071316;28;20042;-94
2023/01/06 09:14:17;;;;;;;;;;;;;;;;;;2071642;28;20030;-95
2023/01/06 09:15:18;;;;;;;3.23;1.70;;;;;;;;;;2071305;28;20342;-94
2023/01/06 09:16:22;;;;;;;2.25;1.63;;;;;;;;;;2079268;28;20457;-95
2023/01/06 09:17:22;;;;;;;2.35;1.70;;;;;;;;;;2080342;28;20083;-94
2023/01/06 09:18:22;;;;;;;3.67;1.85;;;;;;;;;;2079433;28;20099;-94
2023/01/06 09:19:23;;;;;;;4.20;1.70;;;;;;;;;;2070795;28;20105;-96
2023/01/06 09:20:23;;;;;;;;;;;;;;;;;;2071591;28;20372;-94
2023/01/06 09:21:24;;;;;;;1.93;1.60;;;;;;;;;;2071085;28;20096;-94
2023/01/06 09:22:24;;;;;;;2.50;1.83;;;;;;;;;;2071390;28;20118;-93
2023/01/06 09:23:25;;;;;;;3.50;1.95;;;;;;;;;;2071491;28;20458;-93
2023/01/06 09:24:26;;;;;;;2.50;1.90;;;;;;;;;;2071532;28;20053;-94
2023/01/06 09:25:26;;;;;;;1.75;1.58;;;;;;;;;;2071362;28;20033;-95
2023/01/06 09:26:27;;;;;;;3.65;1.70;;;;;;;;;;2071575;28;20120;-94
2023/01/06 09:27:27;;;;;;;4.65;1.40;;;;;;;;;;2078745;28;20206;-90
2023/01/06 09:28:27;;;;;;;2.47;1.70;;;;;;;;;;2077768;28;20048;-88
2023/01/06 09:29:28;;;;;;;4.28;1.90;;;;;;;;;;2077562;28;20060;-88
2023/01/06 09:30:29;;;;;;;3.67;1.42;;;;;;;;;;1723690;28;10205696;-89
2023/01/06 09:31:29;;;;;;;3.40;1.88;;;;;;;;;;2077111;28;20453;-89
2023/01/06 09:32:29;;;;;;;3.65;1.58;;;;;;;;;;2077358;28;20068;-89
2023/01/06 09:33:36;;;;;;;1.20;1.08;;;;;;;;;;2077424;28;20018;-89
2023/01/06 09:34:39;;;;;;;4.07;1.55;;;;;;;;;;2078070;28;20065;-89
2023/01/06 09:35:39;;;;;;;2.08;1.45;;;;;;;;;;2078123;28;20382;-90
2023/01/06 09:36:40;;;;;;;3.35;1.60;;;;;;;;;;2077443;28;20025;-89
2023/01/06 09:37:40;;;;;;;2.55;1.45;;;;;;;;;;2077664;28;20025;-89
2023/01/06 09:38:41;;;;;;;2.50;1.70;;;;;;;;;;2077517;28;20029;-89
2023/01/06 09:39:41;;;;;;;2.97;1.70;;;;;;;;;;2069484;28;20050;-89
2023/01/06 09:40:53;;;;;;;3.55;1.60;;;;;;;;;;2069469;28;20141;-89
2023/01/06 09:42:11;;;;;;;5.13;1.80;;;;;;;;;;1730926;28;10001382;-88
2023/01/06 09:43:45;;;;;;;4.30;1.70;;;;;;;;;;2069818;28;20018;-89
2023/01/06 09:45:45;;;;;;;3.03;1.55;;;;;;;;;;1731508;28;10002106;-89
2023/01/06 09:46:48;;;;;;;2.00;0.85;;;;;;;;;;2068879;28;20581;-89
2023/01/06 09:47:54;;;;;;;2.65;1.30;;;;;;;;;;2061162;28;20029;-88
2023/01/06 09:49:07;;;;;;;4.25;1.25;;;;;;;;;;2069598;28;20030;-88
2023/01/06 09:50:33;;;;;;;3.97;0.93;;;;;;;;;;2076980;28;20065;-89
2023/01/06 09:51:35;;;;;;;1.45;1.05;;;;;;;;;;2076986;28;20033;-88
2023/01/06 09:52:43;;;;;;;2.78;1.05;;;;;;;;;;2077592;28;20148;-90
2023/01/06 09:54:21;;;;;;;3.92;1.67;;;;;;;;;;2070081;28;20246;-87
2023/01/06 09:55:33;;;;;;;2.17;0.95;;;;;;;;;;2063495;28;20040;-89
2023/01/06 09:56:34;;;;;;;1.67;0.90;;;;;;;;;;2072919;28;20022;-87
2023/01/06 09:57:38;;;;;;;2.30;1.13;;;;;;;;;;2072635;28;20131;-87
2023/01/06 09:59:00;;;;;;;1.42;1.02;;;;;;;;;;1718273;28;10248014;-88
2023/01/06 10:00:06;;;;;;;6.55;1.13;;;;;;;;;;2072462;28;20026;-90
2023/01/06 10:01:11;;;;;;;2.47;1.08;;;;;;;;;;2071904;28;20102;-88
2023/01/06 10:02:31;;;;;;;0.98;0.80;;;;;;;;;;2072317;28;20418;-88
2023/01/06 10:03:33;;;;;;;1.83;1.00;;;;;;;;;;2072618;28;20033;-87
2023/01/06 10:04:33;;;;;;;2.45;0.95;;;;;;;;;;2071526;28;20191;-88
2023/01/06 10:05:45;;;;;;;3.70;1.25;;;;;;;;;;2071849;28;20494;-89
2023/01/06 10:07:08;;;;;;;2.65;1.30;;;;;;;;;;2071878;28;20613;-90
2023/01/06 10:16:21;;;;;;;4.03;1.25;;;;;;;;;;2076683;28;20034;-90
2023/01/06 10:17:40;;;;;;;1.48;1.02;;;;;;;;;;2072011;28;20046;-90
2023/01/06 10:18:45;;;;;;;2.35;1.00;;;;;;;;;;2072303;28;20026;-90
2023/01/06 10:20:11;;;;;;;4.72;1.17;;;;;;;;;;2073523;28;20061;-90
2023/01/06 10:21:15;;;;;;;1.38;0.90;;;;;;;;;;2072614;28;20077;-91
2023/01/06 10:22:28;;;;;;;2.05;1.13;;;;;;;;;;2071955;28;20491;-91
2023/01/06 10:23:42;;;;;;;4.80;1.30;;;;;;;;;;2071858;28;20041;-91
2023/01/06 10:25:10;;;;;;;2.42;1.08;;;;;;;;;;1726158;28;10000237;-89
2023/01/06 10:26:26;;;;;;;1.60;1.00;;;;;;;;;;2078929;28;20182;-90
2023/01/06 10:27:42;;;;;;;4.18;1.15;;;;;;;;;;2083106;28;20025;-90
2023/01/06 10:28:47;;;;;;;4.25;1.17;;;;;;;;;;2082979;28;20085;-89
2023/01/06 10:29:50;;;;;;;2.70;1.38;;;;;;;;;;2080359;28;20022;-90
2023/01/06 10:30:54;;;;;;;4.57;1.73;;;;;;;;;;2070673;28;20081;-90
2023/01/06 10:31:56;;;;;;;2.40;1.20;;;;;;;;;;2073071;28;20485;-89
2023/01/06 10:32:57;;;;;;;2.75;1.30;;;;;;;;;;2072660;28;20018;-89
2023/01/06 10:33:58;;;;;;;4.90;0.90;;;;;;;;;;2072146;28;20455;-89
2023/01/06 10:34:59;;;;;;;2.08;1.08;;;;;;;;;;2072603;28;20172;-89
2023/01/06 10:36:00;;;;;;;2.88;1.27;;;;;;;;;;2072541;28;20026;-89
2023/01/06 10:37:16;;;;;;;1.73;1.10;;;;;;;;;;2072821;28;20114;-90
2023/01/06 10:38:20;;;;;;;5.07;1.02;;;;;;;;;;2073429;28;20017;-89
2023/01/06 10:39:24;;;;;;;1.15;0.77;;;;;;;;;;2072401;28;20014;-89
2023/01/06 10:40:27;;;;;;;1.80;0.93;;;;;;;;;;2072285;28;20022;-88
2023/01/06 10:41:51;;;;;;;2.47;0.90;;;;;;;;;;2072226;28;20026;-87
2023/01/06 10:42:58;;;;;;;1.83;0.93;;;;;;;;;;2072008;28;20105;-89
2023/01/06 10:43:59;;;;;;;2.15;1.00;;;;;;;;;;2072319;28;20026;-89
2023/01/06 10:44:59;;;;;;;3.05;1.88;;;;;;;;;;2071452;28;20116;-88
2023/01/06 10:46:00;;;;;;;2.67;1.02;;;;;;;;;;2071444;28;20589;-89
2023/01/06 10:47:00;;;;;;;3.53;1.23;;;;;;;;;;2071894;28;20034;-89
2023/01/06 10:48:02;;;;;;;3.40;1.00;;;;;;;;;;2063723;28;20471;-89
2023/01/06 10:49:10;;;;;;;2.55;1.05;;;;;;;;;;2071564;28;20052;-89
2023/01/06 10:50:14;;;;;;;3.38;1.77;;;;;;;;;;2071776;28;20033;-88
2023/01/06 10:51:30;;;;;;;2.50;1.17;;;;;;;;;;2072316;28;20026;-89
2023/01/06 10:52:31;;;;;;;3.08;1.17;;;;;;;;;;2071715;28;20041;-88
2023/01/06 10:53:31;;;;;;;2.63;1.20;;;;;;;;;;2071658;28;20071;-89
2023/01/06 10:54:33;;;;;;;5.15;1.25;;;;;;;;;;2071836;28;20440;-88
2023/01/06 10:55:38;;;;;;;1.92;1.05;;;;;;;;;;2071968;28;20117;-89
2023/01/06 10:56:44;;;;;;;3.30;1.42;;;;;;;;;;2072703;28;20129;-89
2023/01/06 10:57:46;;;;;;;2.80;1.42;;;;;;;;;;2071472;28;20117;-89
2023/01/06 10:58:54;;;;;;;1.70;1.33;;;;;;;;;;2063569;28;20445;-88
2023/01/06 11:00:13;;;;;;;2.70;1.45;;;;;;;;;;2071789;28;20053;-89
2023/01/06 11:01:22;;;;;;;3.38;1.00;;;;;;;;;;1718256;28;10244754;-88
2023/01/06 11:02:23;;;;;;;3.60;1.23;;;;;;;;;;2072159;28;20445;-89
2023/01/06 11:03:23;;;;;;;;;;;;;;;;;;1727901;28;10002008;-89
2023/01/06 11:04:26;;;;;;;2.45;0.90;;;;;;;;;;2071882;28;19916;-89
2023/01/06 11:05:30;;;;;;;1.08;0.88;;;;;;;;;;2071671;28;20038;-90
2023/01/06 11:06:31;;;;;;;1.67;1.02;;;;;;;;;;2071600;28;20026;-89
2023/01/06 11:07:32;;;;;;;1.15;0.73;;;;;;;;;;2071290;28;20121;-88
2023/01/06 11:08:35;;;;;;;1.15;0.80;;;;;;;;;;2063532;28;20113;-88
2023/01/06 11:09:39;;;;;;;2.05;0.95;;;;;;;;;;2071834;28;20163;-88
2023/01/06 11:10:56;;;;;;;2.00;1.10;;;;;;;;;;2072444;28;20505;-88
2023/01/06 11:12:01;;;;;;;3.70;1.00;;;;;;;;;;2071819;28;20025;-90
2023/01/06 11:13:03;;;;;;;1.60;1.10;;;;;;;;;;2063865;28;20483;-88
2023/01/06 11:14:04;;;;;;;2.90;0.90;;;;;;;;;;2071512;28;20086;-89
2023/01/06 11:15:06;;;;;;;0.82;0.77;;;;;;;;;;2071735;28;20053;-89
2023/01/06 11:16:21;;;;;;;2.33;0.95;;;;;;;;;;2063535;28;20069;-88
2023/01/06 11:17:22;;;;;;;1.48;0.80;;;;;;;;;;2071684;28;20100;-90
2023/01/06 11:18:28;;;;;;;5.18;1.15;;;;;;;;;;2071844;28;20560;-91
2023/01/06 11:19:38;;;;;;;1.73;0.95;;;;;;;;;;1728797;28;10001131;-90
2023/01/06 11:20:40;;;;;;;1.40;0.85;;;;;;;;;;2071427;28;20045;-90
2023/01/06 11:21:43;;;;;;;1.27;0.93;;;;;;;;;;2063563;28;20089;-90
2023/01/06 11:22:44;;;;;;;3.83;0.90;;;;;;;;;;2071295;28;20038;-87
2023/01/06 11:23:46;;;;;;;4.22;1.13;;;;;;;;;;2071892;28;20501;-90
2023/01/06 11:24:51;;;;;;;2.90;0.98;;;;;;;;;;2072175;28;20052;-88
2023/01/06 11:26:19;;;;;;;3.67;1.33;;;;;;;;;;2072472;28;20278;-88
2023/01/06 11:27:19;;;;;;;1.98;1.25;;;;;;;;;;2070604;28;20129;-89
2023/01/06 11:28:20;;;;;;;2.92;1.30;;;;;;;;;;2063367;28;20026;-88
2023/01/06 11:29:32;;;;;;;1.88;1.00;;;;;;;;;;2071656;28;20032;-89
2023/01/06 11:30:39;;;;;;;3.20;1.17;;;;;;;;;;2063377;28;20037;-89
2023/01/06 11:31:39;;;;;;;2.75;0.70;;;;;;;;;;2064124;28;20084;-88
2023/01/06 11:32:41;;;;;;;2.67;1.10;;;;;;;;;;2072216;28;20145;-88
2023/01/06 11:33:47;;;;;;;1.90;0.70;;;;;;;;;;2071691;28;20026;-89
2023/01/06 11:35:03;;;;;;;0.88;0.80;;;;;;;;;;2071849;28;20087;-90
2023/01/06 11:36:13;;;;;;;1.45;0.90;;;;;;;;;;2071505;28;20116;-90
2023/01/06 11:37:13;;;;;;;1.10;0.95;;;;;;;;;;2064579;28;20046;-89
2023/01/06 11:38:17;;;;;;;2.72;1.10;;;;;;;;;;2071081;28;20030;-89
2023/01/06 11:39:25;;;;;;;0.93;0.60;;;;;;;;;;2072637;28;20036;-91
2023/01/06 11:40:29;;;;;;;2.92;0.88;;;;;;;;;;2071884;28;20036;-91
2023/01/06 11:41:43;;;;;;;2.58;1.08;;;;;;;;;;2071258;28;20029;-91
2023/01/06 11:42:47;;;;;;;2.78;0.93;;;;;;;;;;2071114;28;20375;-89
2023/01/06 11:43:48;;;;;;;1.50;1.00;;;;;;;;;;2071294;28;20037;-89
2023/01/06 11:44:48;;;;;;;1.92;1.27;;;;;;;;;;2071242;28;20065;-89
2023/01/06 11:45:58;;;;;;;2.17;1.20;;;;;;;;;;2071931;28;20316;-90
2023/01/06 11:47:10;;;;;;;3.22;0.88;;;;;;;;;;2072121;28;20409;-89
2023/01/06 11:48:17;;;;;;;1.95;1.00;;;;;;;;;;2071319;28;20033;-90
2023/01/06 11:49:25;;;;;;;3.42;0.93;;;;;;;;;;2071968;28;20036;-89
2023/01/06 11:50:26;;;;;;;1.35;0.80;;;;;;;;;;2070933;28;20450;-89
2023/01/06 11:51:47;;;;;;;1.27;0.85;;;;;;;;;;2062693;28;20023;-90
2023/01/06 11:53:13;;;;;;;1.58;0.90;;;;;;;;;;2065231;28;20811;-88
2023/01/06 11:54:35;;;;;;;2.38;1.00;;;;;;;;;;2071294;28;20059;-90
2023/01/06 11:55:37;;;;;;;2.88;1.10;;;;;;;;;;2071457;28;20415;-90
2023/01/06 11:56:37;;;;;;;3.25;1.42;;;;;;;;;;2070778;28;20034;-89
2023/01/06 11:58:03;;;;;;;3.17;1.42;;;;;;;;;;2071050;28;20371;-90
2023/01/06 11:59:09;;;;;;;2.88;1.60;;;;;;;;;;2066139;28;20026;-88
2023/01/06 12:00:21;;;;;;;2.15;0.95;;;;;;;;;;2063675;28;20030;-90
2023/01/06 12:01:32;;;;;;;2.25;0.80;;;;;;;;;;2070681;28;20378;-89
2023/01/06 12:02:51;;;;;;;1.58;0.80;;;;;;;;;;2071515;28;20025;-88
2023/01/06 12:04:12;;;;;;;2.60;0.95;;;;;;;;;;2071538;28;20038;-88
2023/01/06 12:05:38;;;;;;;2.58;1.15;;;;;;;;;;2071111;28;20030;-89
2023/01/06 12:06:41;;;;;;;2.08;1.23;;;;;;;;;;2058050;28;20034;-90
2023/01/06 12:07:47;;;;;;;2.22;0.98;;;;;;;;;;2062284;28;20125;-89
2023/01/06 12:09:08;;;;;;;3.83;1.33;;;;;;;;;;2061255;28;20117;-90
2023/01/06 12:10:18;;;;;;;2.63;1.75;;;;;;;;;;2076180;28;20030;-89
2023/01/06 12:11:38;;;;;;;1.85;0.93;;;;;;;;;;2071346;28;20138;-88
2023/01/06 12:12:39;;;;;;;1.60;1.30;;;;;;;;;;2065651;28;20504;-90
2023/01/06 12:13:39;;;;;;;1.85;1.17;;;;;;;;;;2063304;28;20035;-89
2023/01/06 12:14:40;;;;;;;2.30;1.10;;;;;;;;;;2071227;28;20099;-88
2023/01/06 12:15:43;;;;;;;2.70;1.15;;;;;;;;;;2071568;28;20116;-88
2023/01/06 12:17:20;;;;;;;1.33;0.90;;;;;;;;;;2071011;28;20026;-88
2023/01/06 12:18:26;;;;;;;2.67;1.30;;;;;;;;;;2071087;28;20025;-89
2023/01/06 12:19:55;;;;;;;2.50;1.17;;;;;;;;;;2070995;28;20030;-89
2023/01/06 12:20:59;;;;;;;2.72;0.85;;;;;;;;;;2066303;28;20026;-89
2023/01/06 12:22:00;;;;;;;2.05;1.17;;;;;;;;;;2063022;28;20042;-90
2023/01/06 12:23:06;;;;;;;1.88;1.02;;;;;;;;;;2070593;28;20033;-88
2023/01/06 12:24:11;;;;;;;2.25;0.95;;;;;;;;;;2071438;28;20036;-90
2023/01/06 12:25:24;;;;;;;5.13;1.00;;;;;;;;;;2070791;28;20350;-89
2023/01/06 12:26:25;;;;;;;1.20;0.90;;;;;;;;;;2070899;28;20109;-90
2023/01/06 12:27:42;;;;;;;3.25;1.10;;;;;;;;;;2070974;28;20022;-89
2023/01/06 12:28:44;;;;;;;3.45;1.33;;;;;;;;;;2070818;28;20037;-88
2023/01/06 12:29:46;;;;;;;3.08;1.20;;;;;;;;;;2071437;28;20111;-88
2023/01/06 12:31:09;;;;;;;3.40;1.23;;;;;;;;;;2071011;28;20034;-90
2023/01/06 12:32:19;;;;;;;1.35;0.80;;;;;;;;;;2071177;28;20577;-90
2023/01/06 12:33:33;;;;;;;1.58;0.98;;;;;;;;;;2070991;28;20025;-89
2023/01/06 12:34:41;;;;;;;2.13;1.00;;;;;;;;;;2070949;28;20129;-88
2023/01/06 12:35:43;;;;;;;2.53;0.90;;;;;;;;;;2071774;28;20081;-88
2023/01/06 12:36:49;;;;;;;1.52;1.08;;;;;;;;;;2071293;28;20026;-88
2023/01/06 12:37:57;;;;;;;1.92;1.10;;;;;;;;;;2070989;28;20076;-88
2023/01/06 12:39:03;;;;;;;3.28;1.20;;;;;;;;;;2070950;28;20126;-88
2023/01/06 12:40:13;;;;;;;1.52;1.10;;;;;;;;;;2070696;28;20374;-89
2023/01/06 12:41:25;;;;;;;1.63;0.98;;;;;;;;;;2076752;28;20374;-89
2023/01/06 12:42:35;;;;;;;2.15;0.82;;;;;;;;;;2081630;28;20022;-88
2023/01/06 12:43:39;;;;;;;1.58;0.80;;;;;;;;;;2072757;28;20026;-89
2023/01/06 12:44:51;;;;;;;2.28;1.20;;;;;;;;;;2073203;28;20022;-87
2023/01/06 12:45:56;;;;;;;2.25;1.05;;;;;;;;;;2067964;28;20094;-87
2023/01/06 12:47:33;;;;;;;4.20;1.20;;;;;;;;;;1964539;28;10002189;-88
2023/01/06 12:48:48;;;;;;;1.63;0.98;;;;;;;;;;2062292;28;20259;-88
2023/01/06 12:50:33;;;;;;;1.58;0.90;;;;;;;;;;2072496;28;20034;-88
2023/01/06 12:51:44;;;;;;;1.45;0.80;;;;;;;;;;1721182;28;10001530;-89
2023/01/06 12:52:53;;;;;;;;;;;;;;;;;;2070810;28;20076;-89
2023/01/06 12:53:59;;;;;;;1.20;0.73;;;;;;;;;;2070564;28;20043;-88
2023/01/06 12:55:00;;;;;;;1.23;0.90;;;;;;;;;;1717237;28;10251743;-89
2023/01/06 12:56:03;;;;;;;2.35;0.80;;;;;;;;;;2070394;28;20239;-88
2023/01/06 12:57:19;;;;;;;2.00;0.90;;;;;;;;;;2070356;28;20030;-87
2023/01/06 12:58:29;;;;;;;2.00;1.20;;;;;;;;;;1726432;28;10002498;-87
2023/01/06 13:00:02;;;;;;;3.03;1.10;;;;;;;;;;2070535;28;20129;-89
2023/01/06 13:01:09;;;;;;;2.45;1.10;;;;;;;;;;2072952;28;20064;-89
2023/01/06 13:02:28;;;;;;;1.23;0.63;;;;;;;;;;2081949;28;20034;-87
2023/01/06 13:03:59;;;;;;;1.80;1.08;;;;;;;;;;2082193;28;20050;-88
2023/01/06 13:05:22;;;;;;;3.33;0.98;;;;;;;;;;2073590;28;20073;-88
2023/01/06 13:06:26;;;;;;;1.50;1.20;;;;;;;;;;2073789;28;20030;-88
2023/01/06 13:07:32;;;;;;;3.65;1.52;;;;;;;;;;2070689;28;20025;-89
2023/01/06 13:08:52;;;;;;;2.47;1.02;;;;;;;;;;2070844;28;20109;-90
2023/01/06 13:10:19;;;;;;;1.83;1.15;;;;;;;;;;2070962;28;20053;-87
2023/01/06 13:11:30;;;;;;;3.60;0.98;;;;;;;;;;2071017;28;20030;-90
2023/01/06 13:12:59;;;;;;;2.50;1.10;;;;;;;;;;2070912;28;20052;-88
2023/01/06 13:14:23;;;;;;;1.33;0.90;;;;;;;;;;2068431;28;20044;-88
2023/01/06 13:15:27;;;;;;;4.55;1.30;;;;;;;;;;2070757;28;20025;-91
2023/01/06 13:16:30;;;;;;;5.20;2.35;;;;;;;;;;1731419;28;10001036;-89
2023/01/06 13:17:49;;;;;;;3.38;1.63;;;;;;;;;;2070543;28;20026;-90
2023/01/06 13:19:00;;;;;;;3.25;1.77;;;;;;;;;;2070516;28;20026;-87
2023/01/06 13:20:04;;;;;;;3.38;1.67;;;;;;;;;;2070342;28;20422;-92
2023/01/06 13:21:09;;;;;;;3.40;1.40;;;;;;;;;;2062828;28;20030;-87
2023/01/06 13:22:16;;;;;;;2.30;0.98;;;;;;;;;;2070552;28;20030;-90
2023/01/06 13:23:23;;;;;;;1.77;0.93;;;;;;;;;;2070428;28;20028;-90
2023/01/06 14:05:00;;;;;;;4.03;2.33;;;;;;;;;;2089628;28;20053;-91
2023/01/06 14:06:01;;;;;;;1.95;1.58;;;;;;;;;;2080911;28;20034;-88
2023/01/06 14:07:03;;;;;;;4.07;1.90;;;;;;;;;;2083853;28;20103;-88
2023/01/06 14:08:15;;;;;;;3.65;1.73;;;;;;;;;;2072954;28;20170;-88
2023/01/06 14:09:17;;;;;;;6.70;2.13;;;;;;;;;;2065067;28;20026;-88
2023/01/06 14:10:37;;;;;;;6.82;3.00;;;;;;;;;;2071854;28;20105;-88
2023/01/06 14:11:38;;;;;;;7.47;2.60;;;;;;;;;;2080178;28;20413;-88
2023/01/06 14:12:38;;;;;;;5.22;2.22;;;;;;;;;;2071657;28;20057;-88
2023/01/06 14:13:42;;;;;;;2.88;1.40;;;;;;;;;;2071446;28;20030;-87
2023/01/06 14:14:43;;;;;;;3.25;1.73;;;;;;;;;;2080420;28;20026;-87
2023/01/06 14:16:11;;;;;;;4.70;1.98;;;;;;;;;;2071422;28;20450;-87
2023/01/06 14:17:42;;;;;;;3.95;1.80;;;;;;;;;;2075188;28;20431;-86
2023/01/06 14:18:50;;;;;;;5.05;2.15;;;;;;;;;;2072030;28;20129;-87
2023/01/06 14:19:52;;;;;;;4.13;2.25;;;;;;;;;;2073574;28;20030;-87
2023/01/06 14:21:00;;;;;;;4.18;1.77;;;;;;;;;;2071603;28;20036;-86
2023/01/06 14:22:22;;;;;;;4.75;2.13;;;;;;;;;;2064337;28;20505;-87
2023/01/06 14:23:24;;;;;;;6.45;3.40;;;;;;;;;;2074991;28;20022;-87
2023/01/06 14:24:30;;;;;;;32.20;13.77;;;;;;;;;;2080490;28;20036;-87
2023/01/06 14:25:38;;;;;;;10.98;4.60;;;;;;;;;;2082654;28;20557;-86
2023/01/06 14:27:01;;;;;;;3.58;2.22;;;;;;;;;;2080415;28;20497;-86
2023/01/06 14:28:01;;;;;;;6.53;2.80;;;;;;;;;;2071599;28;20025;-87
2023/01/06 14:29:42;;;;;;;4.40;2.60;;;;;;;;;;2063512;28;20030;-87
2023/01/06 14:30:42;;;;;;;19.08;7.57;;;;;;;;;;2077239;28;20043;-87
2023/01/06 14:31:42;;;;;;;17.30;7.97;;;;;;;;;;2071279;28;20037;-87
2023/01/06 14:32:43;;;;;;;6.35;3.05;;;;;;;;;;2071226;28;20049;-88
2023/01/06 14:33:44;;;;;;;5.38;2.22;;;;;;;;;;2080394;28;20026;-88
2023/01/06 14:34:53;;;;;;;3.00;2.17;;;;;;;;;;2071286;28;20082;-89
2023/01/06 14:36:11;;;;;;;5.68;2.60;;;;;;;;;;2071451;28;20062;-88
2023/01/06 14:37:14;;;;;;;5.53;2.70;;;;;;;;;;2071380;28;20541;-87
2023/01/06 14:38:32;;;;;;;2.42;2.20;;;;;;;;;;2063449;28;20528;-88
2023/01/06 14:39:33;;;;;;;5.93;3.25;;;;;;;;;;2073710;28;20053;-89
2023/01/06 14:40:46;;;;;;;3.70;2.35;;;;;;;;;;2080144;28;20018;-89
2023/01/06 14:42:18;;;;;;;5.05;2.72;;;;;;;;;;2071520;28;20486;-87
2023/01/06 14:43:42;;;;;;;3.85;2.67;;;;;;;;;;2067545;28;20025;-89
2023/01/06 14:44:49;;;;;;;5.68;3.38;;;;;;;;;;2066044;28;20132;-89
2023/01/06 14:45:51;;;;;;;4.50;2.60;;;;;;;;;;2072263;28;20048;-90
2023/01/06 14:46:58;;;;;;;5.38;3.00;;;;;;;;;;2080281;28;20504;-89
2023/01/06 14:48:03;;;;;;;4.25;2.58;;;;;;;;;;2071489;28;20034;-87
2023/01/06 14:49:11;;;;;;;7.97;3.40;;;;;;;;;;2071738;28;20074;-87
2023/01/06 14:50:16;;;;;;;6.93;3.53;;;;;;;;;;2080033;28;20021;-88
2023/01/06 14:51:19;;;;;;;7.55;3.90;;;;;;;;;;2071384;28;20037;-89
2023/01/06 14:52:30;;;;;;;7.15;3.92;;;;;;;;;;2071381;28;20018;-87
2023/01/06 14:53:42;;;;;;;5.78;2.78;;;;;;;;;;2064683;28;20119;-89
2023/01/06 14:54:45;;;;;;;4.95;2.88;;;;;;;;;;2064610;28;20031;-87
2023/01/06 14:55:48;;;;;;;3.30;2.65;;;;;;;;;;2071117;28;20026;-87
2023/01/06 14:56:57;;;;;;;4.60;2.78;;;;;;;;;;2071012;28;20038;-87
2023/01/06 14:57:57;;;;;;;5.45;3.28;;;;;;;;;;2071954;28;20074;-87
2023/01/06 14:59:11;;;;;;;3.38;2.70;;;;;;;;;;2080166;28;20513;-87
2023/01/06 15:00:25;;;;;;;8.40;3.45;;;;;;;;;;2071030;28;20024;-87
2023/01/06 15:01:32;;;;;;;3.75;2.65;;;;;;;;;;2064414;28;20066;-86
2023/01/06 15:02:33;;;;;;;7.57;3.78;;;;;;;;;;2063649;28;20034;-87
2023/01/06 15:03:33;;;;;;;7.40;3.80;;;;;;;;;;2063032;28;20475;-88
2023/01/06 15:04:34;;;;;;;5.30;3.35;;;;;;;;;;1725510;28;10001336;-88
2023/01/06 15:05:37;;;;;;;6.65;3.53;;;;;;;;;;2076691;28;20033;-89
2023/01/06 15:06:37;;;;;;;4.97;3.50;;;;;;;;;;2083489;28;20028;-88